createdAt,value
2022-10-22T00:02:20.040Z,96.92
2022-10-22T00:05:41.679Z,97.11
2022-10-22T00:09:03.353Z,96.11
2022-10-22T00:12:25.074Z,96.24
2022-10-22T00:15:46.620Z,95.87
2022-10-22T00:19:11.101Z,96.06
2022-10-22T00:22:32.542Z,95.89
2022-10-22T00:25:55.270Z,96.09
2022-10-22T00:29:18.687Z,95.75
2022-10-22T00:32:40.452Z,95.30
2022-10-22T00:36:03.491Z,95.19
2022-10-22T00:39:27.034Z,96.05
2022-10-22T00:42:48.617Z,95.86
2022-10-22T00:46:09.990Z,95.66
2022-10-22T00:49:31.831Z,95.74
2022-10-22T00:52:56.139Z,96.17
2022-10-22T00:56:18.690Z,95.88
2022-10-22T00:59:40.559Z,95.25
2022-10-22T01:03:03.025Z,94.98
2022-10-22T01:06:27.723Z,95.51
2022-10-22T01:10:04.427Z,94.88
2022-10-22T01:13:36.634Z,95.20
2022-10-22T01:17:05.947Z,93.64
2022-10-22T01:20:52.600Z,93.09
2022-10-22T01:24:36.604Z,93.09
2022-10-22T01:28:11.574Z,93.34
2022-10-22T01:31:40.546Z,93.17
2022-10-22T01:35:05.335Z,93.17
2022-10-22T01:38:28.165Z,92.68
2022-10-22T01:41:49.942Z,93.42
2022-10-22T01:45:13.610Z,92.66
2022-10-22T01:48:47.278Z,92.75
2022-10-22T01:52:16.452Z,93.52
2022-10-22T01:55:47.270Z,93.36
2022-10-22T01:59:17.333Z,92.98
2022-10-22T02:02:44.976Z,93.48
2022-10-22T02:06:15.571Z,94.02
2022-10-22T02:09:38.895Z,93.54
2022-10-22T02:13:02.120Z,94.23
2022-10-22T02:16:28.080Z,93.69
2022-10-22T02:19:54.766Z,94.00
2022-10-22T02:23:18.139Z,93.22
2022-10-22T02:26:43.798Z,93.08
2022-10-22T02:30:09.708Z,93.67
2022-10-22T02:33:36.609Z,93.44
2022-10-22T02:37:00.866Z,93.46
2022-10-22T02:40:24.262Z,93.40
2022-10-22T02:43:49.893Z,93.99
2022-10-22T02:47:11.328Z,94.43
2022-10-22T02:50:33.023Z,94.41
2022-10-22T02:53:54.323Z,94.81
2022-10-22T02:57:17.133Z,94.46
2022-10-22T03:00:38.584Z,94.08
2022-10-22T03:04:00.413Z,95.37
2022-10-22T03:07:21.701Z,95.93
2022-10-22T03:10:44.330Z,95.86
2022-10-22T03:14:07.257Z,96.01
2022-10-22T03:17:28.612Z,94.73
2022-10-22T03:20:50.558Z,95.14
2022-10-22T03:24:14.476Z,94.99
2022-10-22T03:27:37.952Z,94.83
2022-10-22T03:31:01.494Z,94.63
2022-10-22T03:34:22.992Z,94.43
2022-10-22T03:37:44.619Z,94.93
2022-10-22T03:41:06.181Z,94.23
2022-10-22T03:44:29.068Z,94.15
2022-10-22T03:47:52.071Z,95.01
2022-10-22T03:51:13.625Z,94.80
2022-10-22T03:54:35.150Z,94.19
2022-10-22T03:57:56.521Z,95.27
2022-10-22T04:01:17.921Z,94.43
2022-10-22T04:04:41.083Z,94.23
2022-10-22T04:08:02.253Z,94.45
2022-10-22T04:11:23.588Z,94.85
2022-10-22T04:14:44.988Z,94.83
2022-10-22T04:18:06.332Z,94.32
2022-10-22T04:21:30.992Z,93.41
2022-10-22T04:24:52.318Z,94.00
2022-10-22T04:28:14.231Z,93.44
2022-10-22T04:31:35.750Z,93.54
2022-10-22T04:34:57.215Z,93.17
2022-10-22T04:38:19.786Z,93.25
2022-10-22T04:41:41.039Z,92.86
2022-10-22T04:45:02.243Z,92.97
2022-10-22T04:48:23.590Z,93.51
2022-10-22T04:51:45.336Z,94.06
2022-10-22T04:55:09.443Z,93.99
2022-10-22T04:58:31.310Z,93.63
2022-10-22T05:01:53.463Z,93.24
2022-10-22T05:05:15.102Z,93.24
2022-10-22T05:08:37.729Z,92.81
2022-10-22T05:12:00.912Z,92.86
2022-10-22T05:15:22.816Z,93.08
2022-10-22T05:18:46.017Z,93.68
2022-10-22T05:22:07.916Z,93.64
2022-10-22T05:25:29.217Z,93.81
2022-10-22T05:28:53.270Z,93.74
2022-10-22T05:32:15.288Z,93.45
2022-10-22T05:35:37.053Z,93.69
2022-10-22T05:38:58.649Z,93.27
2022-10-22T05:42:20.071Z,93.30
2022-10-22T05:45:43.885Z,93.19
2022-10-22T05:49:07.773Z,92.63
2022-10-22T05:52:29.544Z,93.09
2022-10-22T05:55:51.262Z,93.15
2022-10-22T05:59:13.236Z,92.47
2022-10-22T06:02:36.531Z,92.43
2022-10-22T06:05:57.853Z,92.40
2022-10-22T06:09:24.826Z,93.02
2022-10-22T06:12:48.643Z,92.86
2022-10-22T06:16:10.636Z,93.16
2022-10-22T06:19:33.554Z,92.72
2022-10-22T06:22:55.146Z,93.15
2022-10-22T06:26:17.902Z,93.23
2022-10-22T06:29:39.874Z,93.25
2022-10-22T06:33:01.691Z,93.02
2022-10-22T06:36:25.962Z,93.25
2022-10-22T06:39:47.711Z,93.94
2022-10-22T06:43:09.592Z,93.59
2022-10-22T06:46:31.836Z,93.20
2022-10-22T06:49:53.465Z,94.04
2022-10-22T06:53:16.162Z,94.08
2022-10-22T06:56:38.240Z,94.08
2022-10-22T06:59:59.798Z,94.30
2022-10-22T07:03:21.733Z,94.72
2022-10-22T07:06:43.542Z,94.93
2022-10-22T07:10:07.185Z,95.69
2022-10-22T07:13:28.636Z,95.80
2022-10-22T07:16:50.414Z,95.78
2022-10-22T07:20:12.862Z,96.35
2022-10-22T07:23:34.294Z,96.63
2022-10-22T07:26:57.485Z,96.52
2022-10-22T07:30:19.259Z,96.72
2022-10-22T07:33:41.752Z,96.78
2022-10-22T07:37:03.450Z,96.27
2022-10-22T07:40:25.148Z,96.25
2022-10-22T07:43:48.640Z,97.00
2022-10-22T07:47:10.643Z,97.04
2022-10-22T07:50:32.671Z,96.57
2022-10-22T07:53:54.577Z,96.41
2022-10-22T07:57:16.518Z,96.83
2022-10-22T08:00:39.066Z,96.07
2022-10-22T08:04:00.273Z,96.20
2022-10-22T08:07:22.068Z,95.76
2022-10-22T08:10:44.446Z,95.11
2022-10-22T08:14:05.979Z,95.90
2022-10-22T08:17:28.829Z,95.55
2022-10-22T08:20:51.903Z,94.92
2022-10-22T08:24:14.038Z,94.98
2022-10-22T08:27:38.620Z,94.59
2022-10-22T08:31:00.444Z,94.55
2022-10-22T08:34:23.134Z,94.20
2022-10-22T08:37:45.132Z,94.82
2022-10-22T08:41:13.581Z,94.95
2022-10-22T08:44:55.548Z,95.34
2022-10-22T08:48:32.086Z,95.05
2022-10-22T08:51:58.505Z,95.29
2022-10-22T08:55:20.876Z,95.15
2022-10-22T08:58:50.697Z,95.07
2022-10-22T09:02:25.342Z,95.23
2022-10-22T09:05:55.572Z,94.88
2022-10-22T09:09:19.784Z,95.54
2022-10-22T09:12:42.102Z,95.51
2022-10-22T09:16:16.258Z,94.73
2022-10-22T09:19:48.540Z,94.74
2022-10-22T09:23:33.002Z,94.31
2022-10-22T09:26:58.045Z,94.63
2022-10-22T09:30:22.133Z,94.13
2022-10-22T09:33:45.855Z,94.03
2022-10-22T09:37:09.365Z,93.60
2022-10-22T09:40:30.732Z,94.01
2022-10-22T09:43:53.965Z,93.99
2022-10-22T09:47:42.766Z,93.59
2022-10-22T09:51:12.184Z,94.05
2022-10-22T09:54:41.408Z,93.96
2022-10-22T09:58:03.028Z,93.84
2022-10-22T10:01:27.979Z,93.95
2022-10-22T10:04:51.512Z,93.61
2022-10-22T10:08:15.179Z,93.42
2022-10-22T10:11:44.549Z,94.11
2022-10-22T10:15:18.664Z,94.06
2022-10-22T10:18:53.646Z,93.34
2022-10-22T10:22:28.688Z,94.02
2022-10-22T10:25:58.776Z,94.11
2022-10-22T10:33:16.317Z,94.01
2022-10-22T10:36:47.735Z,94.28
2022-10-22T10:40:25.215Z,93.94
2022-10-22T10:44:03.043Z,93.85
2022-10-22T10:47:50.755Z,93.67
2022-10-22T10:51:27.261Z,93.80
2022-10-22T10:55:01.514Z,93.47
2022-10-22T10:58:31.539Z,93.78
2022-10-22T11:02:11.217Z,93.61
2022-10-22T11:05:38.939Z,93.50
2022-10-22T11:09:06.607Z,93.77
2022-10-22T11:12:34.398Z,93.06
2022-10-22T11:16:02.164Z,93.27
2022-10-22T11:19:50.088Z,93.10
2022-10-22T11:23:19.944Z,93.24
2022-10-22T11:26:48.759Z,93.03
2022-10-22T11:30:15.567Z,93.32
2022-10-22T11:33:45.857Z,92.60
2022-10-22T11:37:08.259Z,92.82
2022-10-22T11:40:36.064Z,92.91
2022-10-22T11:44:05.919Z,92.23
2022-10-22T11:47:32.965Z,92.05
2022-10-22T11:50:59.997Z,91.22
2022-10-22T11:54:33.410Z,91.48
2022-10-22T11:58:00.125Z,91.49
2022-10-22T12:01:30.347Z,91.18
2022-10-22T12:04:53.255Z,90.85
2022-10-22T12:08:21.856Z,90.57
2022-10-22T12:11:48.387Z,90.95
2022-10-22T12:15:25.144Z,90.91
2022-10-22T12:18:46.897Z,89.82
2022-10-22T12:22:17.829Z,89.66
2022-10-22T12:25:39.342Z,89.23
2022-10-22T12:29:02.042Z,89.10
2022-10-22T12:32:24.680Z,89.06
2022-10-22T12:35:49.048Z,88.72
2022-10-22T12:39:17.043Z,88.26
2022-10-22T12:42:38.768Z,88.58
2022-10-22T12:46:01.201Z,87.84
2022-10-22T12:49:26.628Z,87.52
2022-10-22T12:52:49.648Z,87.42
2022-10-22T12:56:16.363Z,87.23
2022-10-22T12:59:40.333Z,87.33
2022-10-22T13:03:06.344Z,86.69
2022-10-22T13:06:29.791Z,86.11
2022-10-22T13:09:59.363Z,86.07
2022-10-22T13:13:36.831Z,85.98
2022-10-22T13:17:07.411Z,85.57
2022-10-22T13:20:29.165Z,85.82
2022-10-22T13:23:54.751Z,85.74
2022-10-22T13:27:16.512Z,85.31
2022-10-22T13:30:40.877Z,84.94
2022-10-22T13:34:09.901Z,85.25
2022-10-22T13:37:35.603Z,84.40
2022-10-22T13:40:57.725Z,83.76
2022-10-22T13:44:19.982Z,83.62
2022-10-22T13:47:45.976Z,83.28
2022-10-22T13:51:14.702Z,82.99
2022-10-22T13:54:37.880Z,82.36
2022-10-22T13:58:04.888Z,81.87
2022-10-22T14:01:28.862Z,82.00
2022-10-22T14:04:53.090Z,81.87
2022-10-22T14:08:17.476Z,80.93
2022-10-22T14:11:39.019Z,81.67
2022-10-22T14:15:00.825Z,81.51
2022-10-22T14:18:27.334Z,81.47
2022-10-22T14:21:50.528Z,81.27
2022-10-22T14:25:15.973Z,81.59
2022-10-22T14:28:46.156Z,81.94
2022-10-22T14:32:21.241Z,81.61
2022-10-22T14:35:43.574Z,81.55
2022-10-22T14:39:06.832Z,81.46
2022-10-22T14:42:29.592Z,81.40
2022-10-22T14:45:51.958Z,81.63
2022-10-22T14:49:13.674Z,81.83
2022-10-22T14:52:35.499Z,81.52
2022-10-22T14:55:59.602Z,81.16
2022-10-22T14:59:21.187Z,81.57
2022-10-22T15:02:43.273Z,81.92
2022-10-22T15:06:05.925Z,81.94
2022-10-22T15:09:27.518Z,82.21
2022-10-22T15:12:50.715Z,82.27
2022-10-22T15:16:14.171Z,82.24
2022-10-22T15:19:35.585Z,81.89
2022-10-22T15:22:57.655Z,82.00
2022-10-22T15:26:19.315Z,82.45
2022-10-22T15:29:43.697Z,82.55
2022-10-22T15:33:05.561Z,83.05
2022-10-22T15:36:27.209Z,83.17
2022-10-22T15:39:49.584Z,83.34
2022-10-22T15:43:11.968Z,83.67
2022-10-22T15:46:36.322Z,84.06
2022-10-22T15:49:57.784Z,84.46
2022-10-22T15:53:19.722Z,84.40
2022-10-22T15:56:42.252Z,84.15
2022-10-22T16:00:03.621Z,84.67
2022-10-22T16:03:35.446Z,84.66
2022-10-22T16:06:58.418Z,84.93
2022-10-22T16:10:19.804Z,84.94
2022-10-22T16:13:41.053Z,84.88
2022-10-22T16:17:02.491Z,84.99
2022-10-22T16:20:25.732Z,85.04
2022-10-22T16:23:47.418Z,84.83
2022-10-22T16:27:09.402Z,84.88
2022-10-22T16:30:30.831Z,85.03
2022-10-22T16:33:52.488Z,84.99
2022-10-22T16:37:15.747Z,85.58
2022-10-22T16:40:37.523Z,85.78
2022-10-22T16:44:00.845Z,85.54
2022-10-22T16:47:22.307Z,85.23
2022-10-22T16:50:43.790Z,85.34
2022-10-22T16:54:09.737Z,85.57
2022-10-22T16:57:35.912Z,85.41
2022-10-22T17:00:57.748Z,85.49
2022-10-22T17:04:19.397Z,86.94
2022-10-22T17:07:40.512Z,86.86
2022-10-22T17:11:08.536Z,86.33
2022-10-22T17:14:29.872Z,86.48
2022-10-22T17:17:53.686Z,86.04
2022-10-22T17:21:15.936Z,86.94
2022-10-22T17:24:38.800Z,86.04
2022-10-22T17:28:01.705Z,85.97
2022-10-22T17:31:25.106Z,86.59
2022-10-22T17:34:46.640Z,86.72
2022-10-22T17:38:08.495Z,86.57
2022-10-22T17:41:31.949Z,86.60
2022-10-22T17:44:54.893Z,86.95
2022-10-22T17:48:16.259Z,86.84
2022-10-22T17:51:37.889Z,87.12
2022-10-22T17:54:59.648Z,87.12
2022-10-22T17:58:20.881Z,87.69
2022-10-22T18:01:45.658Z,87.47
2022-10-22T18:05:08.108Z,87.84
2022-10-22T18:08:29.646Z,88.14
2022-10-22T18:11:53.323Z,88.20
2022-10-22T18:15:15.027Z,87.63
2022-10-22T18:18:38.014Z,87.48
2022-10-22T18:22:00.585Z,87.91
2022-10-22T18:25:22.738Z,88.34
2022-10-22T18:28:44.064Z,88.42
2022-10-22T18:32:12.140Z,88.54
2022-10-22T18:35:36.132Z,88.70
2022-10-22T18:38:58.948Z,88.69
2022-10-22T18:42:20.281Z,88.34
2022-10-22T18:45:43.844Z,88.76
2022-10-22T18:49:06.932Z,88.28
2022-10-22T18:52:29.826Z,88.51
2022-10-22T18:55:51.203Z,88.60
2022-10-22T18:59:19.168Z,88.53
2022-10-22T19:02:41.149Z,88.06
2022-10-22T19:06:02.920Z,88.31
2022-10-22T19:09:26.921Z,88.50
2022-10-22T19:12:48.287Z,88.69
2022-10-22T19:16:13.519Z,87.74
2022-10-22T19:19:35.889Z,88.37
2022-10-22T19:22:57.507Z,87.89
2022-10-22T19:26:21.457Z,87.82
2022-10-22T19:29:44.721Z,87.96
2022-10-22T19:33:07.394Z,88.53
2022-10-22T19:36:30.143Z,88.44
2022-10-22T19:39:51.843Z,88.64
2022-10-22T19:43:18.867Z,88.95
2022-10-22T19:46:40.906Z,89.21
2022-10-22T19:50:02.364Z,89.03
2022-10-22T19:53:23.636Z,88.96
2022-10-22T19:56:46.709Z,89.27
2022-10-22T20:00:10.939Z,89.10
2022-10-22T20:03:32.642Z,89.34
2022-10-22T20:06:54.017Z,89.21
2022-10-22T20:10:16.166Z,89.58
2022-10-22T20:17:02.210Z,88.58
2022-10-22T20:20:26.392Z,88.62
2022-10-22T20:23:52.136Z,88.96
2022-10-22T20:27:14.681Z,88.99
2022-10-22T20:30:36.991Z,88.40
2022-10-22T20:34:01.816Z,88.35
2022-10-22T20:37:23.464Z,87.94
2022-10-22T20:40:45.658Z,87.80
2022-10-22T20:44:08.045Z,87.84
2022-10-22T20:47:39.226Z,87.90
2022-10-22T20:51:13.476Z,88.33
2022-10-22T20:54:34.937Z,88.30
2022-10-22T20:57:56.445Z,88.08
2022-10-22T21:01:21.808Z,88.36
2022-10-22T21:04:45.592Z,88.28
2022-10-22T21:08:10.395Z,88.16
2022-10-22T21:11:32.923Z,88.34
2022-10-22T21:14:55.331Z,88.33
2022-10-22T21:18:16.836Z,88.55
2022-10-22T21:21:38.838Z,88.98
2022-10-22T21:25:01.883Z,89.11
2022-10-22T21:28:23.926Z,89.14
2022-10-22T21:31:45.380Z,89.20
2022-10-22T21:35:07.685Z,89.74
2022-10-22T21:38:29.026Z,90.28
2022-10-22T21:41:52.165Z,91.19
2022-10-22T21:45:15.611Z,91.53
2022-10-22T21:48:40.418Z,91.17
2022-10-22T21:52:02.964Z,91.56
2022-10-22T21:55:24.722Z,92.44
2022-10-22T21:58:48.138Z,92.36
2022-10-22T22:02:09.499Z,92.23
2022-10-22T22:05:31.265Z,92.05
2022-10-22T22:08:54.754Z,92.18
2022-10-22T22:12:16.646Z,91.77
2022-10-22T22:15:39.200Z,93.10
2022-10-22T22:22:26.033Z,93.52
2022-10-22T22:25:47.375Z,94.08
2022-10-22T22:29:09.270Z,94.22
2022-10-22T22:32:32.824Z,94.08
2022-10-22T22:35:58.507Z,93.94
2022-10-22T22:39:21.655Z,94.29
2022-10-22T22:42:43.284Z,94.84
2022-10-22T22:46:06.505Z,94.94
2022-10-22T22:49:29.179Z,95.57
2022-10-22T22:52:50.530Z,94.86
2022-10-22T22:56:14.811Z,95.13
2022-10-22T22:59:36.633Z,94.74
2022-10-22T23:02:57.827Z,94.40
2022-10-22T23:06:20.565Z,94.25
2022-10-22T23:09:41.827Z,93.39
2022-10-22T23:13:03.428Z,92.86
2022-10-22T23:16:27.078Z,92.65
2022-10-22T23:19:48.566Z,91.95
2022-10-22T23:23:11.218Z,91.60
2022-10-22T23:26:34.988Z,91.04
2022-10-22T23:29:56.190Z,90.64
2022-10-22T23:33:19.299Z,90.95
2022-10-22T23:36:40.960Z,90.78
2022-10-22T23:40:04.546Z,90.10
2022-10-22T23:43:27.491Z,90.10
2022-10-22T23:46:49.266Z,89.81
2022-10-22T23:50:12.979Z,89.61
2022-10-22T23:53:35.054Z,89.72
2022-10-22T23:56:57.906Z,89.07
